Iron Belt, Wisconsin
Current Conditions -  °F | °C
As of 4:15 AM on Saturday 20 Dec 2014 (Local Time) from KIWD Reporting Station
Overcast Overcast  
Wind Chill: 16°   Ceiling: 1800
Heat Index: 25°   Visibility: 10mi
Dew Point: 21°   Wind: 8mph
Humidity: 86%   Direction: 190°S
Pressure: 30.15"   Gusts: NA
Location:  46.4°N, 90.32°W
Report Text: KIWD 201015Z AUTO 19007KT 10SM OVC018 M04/M06 A3015 RMK AO1
Loading
Personal Weather Stations






























Interactive Weather Map New forecast layout! Learn more

10-Day Weather Forecast

Advertisements
Track Severe Weather on mobile